New Liskeard, Canada
Current Conditions -  °F | °C
As of 1:00 AM on Monday 20 Oct 2014 (Local Time) from CYXR Reporting Station
Overcast Overcast  
Wind Chill: 26°   Ceiling: 10000
Heat Index: 32°   Visibility: 9mi
Dew Point: 30°   Wind: 6mph
Humidity: 93%   Direction: 140°SE
Pressure: 29.89"   Gusts: NA
Location:  47.5°N, 79.67°W
Report Text: CYXR 200500Z AUTO 14005KT 9SM BKN100 OVC120 00/M01 A2989 RMK SLP135
Loading
Personal Weather Stations






























Interactive Weather Map
Tropical Storm Tracking
New forecast layout! Learn more

10-Day Weather Forecast

Advertisements
Track Severe Weather on mobile